sensor_id;sensor_type;location;lat;lon;timestamp;pressure;altitude;pressure_sealevel;temperature;humidity
21357;BME280;10836;53.068;18.234;2022-11-15T00:01:34;101339.50;;;5.10;100.00
21357;BME280;10836;53.068;18.234;2022-11-15T00:04:21;101341.91;;;5.18;100.00
21357;BME280;10836;53.068;18.234;2022-11-15T00:07:06;101339.34;;;5.23;100.00
21357;BME280;10836;53.068;18.234;2022-11-15T00:09:52;101335.91;;;5.16;100.00
21357;BME280;10836;53.068;18.234;2022-11-15T00:12:38;101341.16;;;5.11;100.00
21357;BME280;10836;53.068;18.234;2022-11-15T00:15:24;101340.66;;;4.96;100.00
21357;BME280;10836;53.068;18.234;2022-11-15T00:18:12;101341.53;;;4.90;100.00
21357;BME280;10836;53.068;18.234;2022-11-15T00:21:12;101343.75;;;4.99;100.00
21357;BME280;10836;53.068;18.234;2022-11-15T00:23:58;101339.59;;;4.97;100.00
21357;BME280;10836;53.068;18.234;2022-11-15T00:26:44;101344.41;;;4.95;100.00
21357;BME280;10836;53.068;18.234;2022-11-15T00:29:30;101338.38;;;4.93;100.00
21357;BME280;10836;53.068;18.234;2022-11-15T00:32:16;101339.41;;;4.92;100.00
21357;BME280;10836;53.068;18.234;2022-11-15T00:35:01;101329.97;;;5.01;100.00
21357;BME280;10836;53.068;18.234;2022-11-15T00:37:47;101327.50;;;4.99;100.00
21357;BME280;10836;53.068;18.234;2022-11-15T00:40:33;101326.66;;;4.99;100.00
21357;BME280;10836;53.068;18.234;2022-11-15T00:43:19;101324.41;;;4.96;100.00
21357;BME280;10836;53.068;18.234;2022-11-15T00:46:05;101317.16;;;4.90;100.00
21357;BME280;10836;53.068;18.234;2022-11-15T00:48:52;101323.06;;;4.80;100.00
21357;BME280;10836;53.068;18.234;2022-11-15T00:51:38;101312.84;;;4.82;100.00
21357;BME280;10836;53.068;18.234;2022-11-15T00:54:24;101316.38;;;4.83;100.00
21357;BME280;10836;53.068;18.234;2022-11-15T00:57:09;101306.00;;;4.80;100.00
21357;BME280;10836;53.068;18.234;2022-11-15T00:59:55;101310.16;;;4.82;100.00
21357;BME280;10836;53.068;18.234;2022-11-15T01:02:41;101305.69;;;4.70;100.00
21357;BME280;10836;53.068;18.234;2022-11-15T01:05:27;101296.84;;;4.81;100.00
21357;BME280;10836;53.068;18.234;2022-11-15T01:08:14;101295.63;;;4.77;100.00
21357;BME280;10836;53.068;18.234;2022-11-15T01:11:06;101288.13;;;4.79;100.00
21357;BME280;10836;53.068;18.234;2022-11-15T01:13:51;101284.50;;;4.66;100.00
21357;BME280;10836;53.068;18.234;2022-11-15T01:16:38;101274.59;;;4.54;100.00
21357;BME280;10836;53.068;18.234;2022-11-15T01:19:26;101280.41;;;4.57;100.00
21357;BME280;10836;53.068;18.234;2022-11-15T01:22:12;101284.75;;;4.58;100.00
21357;BME280;10836;53.068;18.234;2022-11-15T01:24:58;101276.94;;;4.44;100.00
21357;BME280;10836;53.068;18.234;2022-11-15T01:27:44;101275.81;;;4.58;100.00
21357;BME280;10836;53.068;18.234;2022-11-15T01:30:29;101276.72;;;4.45;100.00
21357;BME280;10836;53.068;18.234;2022-11-15T01:33:15;101264.78;;;4.59;100.00
21357;BME280;10836;53.068;18.234;2022-11-15T01:36:12;101267.47;;;4.59;100.00
21357;BME280;10836;53.068;18.234;2022-11-15T01:38:58;101259.38;;;4.59;100.00
21357;BME280;10836;53.068;18.234;2022-11-15T01:41:44;101256.97;;;4.45;100.00
21357;BME280;10836;53.068;18.234;2022-11-15T01:47:19;101246.22;;;4.63;100.00
21357;BME280;10836;53.068;18.234;2022-11-15T01:50:09;101246.00;;;4.64;100.00
21357;BME280;10836;53.068;18.234;2022-11-15T01:52:55;101241.22;;;4.66;100.00
21357;BME280;10836;53.068;18.234;2022-11-15T01:55:42;101242.88;;;4.67;100.00
21357;BME280;10836;53.068;18.234;2022-11-15T01:58:27;101239.66;;;4.52;100.00
21357;BME280;10836;53.068;18.234;2022-11-15T02:01:13;101233.03;;;4.48;100.00
21357;BME280;10836;53.068;18.234;2022-11-15T02:04:24;101237.91;;;4.64;100.00
21357;BME280;10836;53.068;18.234;2022-11-15T02:07:15;101226.25;;;4.64;100.00
21357;BME280;10836;53.068;18.234;2022-11-15T02:10:07;101225.09;;;4.53;100.00
21357;BME280;10836;53.068;18.234;2022-11-15T02:12:56;101229.38;;;4.36;100.00
21357;BME280;10836;53.068;18.234;2022-11-15T02:34:55;101217.50;;;4.37;100.00
21357;BME280;10836;53.068;18.234;2022-11-15T02:37:56;101211.44;;;4.42;100.00
21357;BME280;10836;53.068;18.234;2022-11-15T02:40:46;101207.59;;;4.56;100.00
21357;BME280;10836;53.068;18.234;2022-11-15T02:43:48;101209.09;;;4.52;100.00
21357;BME280;10836;53.068;18.234;2022-11-15T02:46:52;101201.59;;;4.29;100.00
21357;BME280;10836;53.068;18.234;2022-11-15T02:50:02;101202.72;;;4.40;100.00
21357;BME280;10836;53.068;18.234;2022-11-15T02:52:51;101193.34;;;4.42;100.00
21357;BME280;10836;53.068;18.234;2022-11-15T02:55:39;101191.09;;;4.39;100.00
21357;BME280;10836;53.068;18.234;2022-11-15T03:04:39;101196.06;;;4.42;100.00
21357;BME280;10836;53.068;18.234;2022-11-15T03:07:34;101195.75;;;4.32;100.00
21357;BME280;10836;53.068;18.234;2022-11-15T03:10:32;101187.34;;;4.40;100.00
21357;BME280;10836;53.068;18.234;2022-11-15T03:16:42;101176.81;;;4.32;100.00
21357;BME280;10836;53.068;18.234;2022-11-15T03:19:46;101179.81;;;4.42;100.00
21357;BME280;10836;53.068;18.234;2022-11-15T03:22:39;101176.94;;;4.37;100.00
21357;BME280;10836;53.068;18.234;2022-11-15T03:25:28;101171.53;;;4.37;100.00
21357;BME280;10836;53.068;18.234;2022-11-15T03:28:22;101177.28;;;4.47;100.00
21357;BME280;10836;53.068;18.234;2022-11-15T03:31:11;101177.28;;;4.47;100.00
21357;BME280;10836;53.068;18.234;2022-11-15T03:37:16;101168.06;;;4.55;100.00
21357;BME280;10836;53.068;18.234;2022-11-15T03:40:04;101161.44;;;4.51;100.00
21357;BME280;10836;53.068;18.234;2022-11-15T03:46:02;101155.66;;;4.47;100.00
21357;BME280;10836;53.068;18.234;2022-11-15T03:48:54;101155.44;;;4.49;100.00
21357;BME280;10836;53.068;18.234;2022-11-15T03:51:42;101156.09;;;4.44;100.00
21357;BME280;10836;53.068;18.234;2022-11-15T03:54:29;101162.66;;;4.55;100.00
21357;BME280;10836;53.068;18.234;2022-11-15T03:57:15;101147.25;;;4.55;100.00
21357;BME280;10836;53.068;18.234;2022-11-15T04:00:01;101147.19;;;4.62;100.00
21357;BME280;10836;53.068;18.234;2022-11-15T04:02:46;101136.94;;;4.46;100.00
21357;BME280;10836;53.068;18.234;2022-11-15T04:05:32;101138.41;;;4.66;100.00
21357;BME280;10836;53.068;18.234;2022-11-15T04:08:17;101138.97;;;4.50;100.00
21357;BME280;10836;53.068;18.234;2022-11-15T04:11:03;101136.13;;;4.45;100.00
21357;BME280;10836;53.068;18.234;2022-11-15T04:13:48;101135.28;;;4.45;100.00
21357;BME280;10836;53.068;18.234;2022-11-15T04:16:35;101134.50;;;4.62;100.00
21357;BME280;10836;53.068;18.234;2022-11-15T04:19:27;101129.63;;;4.71;100.00
21357;BME280;10836;53.068;18.234;2022-11-15T04:22:32;101127.78;;;4.47;100.00
21357;BME280;10836;53.068;18.234;2022-11-15T04:25:35;101130.97;;;4.62;100.00
21357;BME280;10836;53.068;18.234;2022-11-15T04:28:22;101132.56;;;4.70;100.00
21357;BME280;10836;53.068;18.234;2022-11-15T04:31:07;101125.13;;;4.65;100.00
21357;BME280;10836;53.068;18.234;2022-11-15T04:33:54;101117.22;;;4.63;100.00
21357;BME280;10836;53.068;18.234;2022-11-15T04:36:39;101115.69;;;4.49;100.00
21357;BME280;10836;53.068;18.234;2022-11-15T04:39:44;101114.03;;;4.48;100.00
21357;BME280;10836;53.068;18.234;2022-11-15T04:42:29;101113.38;;;4.53;100.00
21357;BME280;10836;53.068;18.234;2022-11-15T04:45:15;101113.09;;;4.61;100.00
21357;BME280;10836;53.068;18.234;2022-11-15T04:48:00;101117.22;;;4.63;100.00
21357;BME280;10836;53.068;18.234;2022-11-15T04:50:49;101110.28;;;4.49;100.00
21357;BME280;10836;53.068;18.234;2022-11-15T04:53:35;101109.97;;;4.39;100.00
21357;BME280;10836;53.068;18.234;2022-11-15T04:56:21;101112.06;;;4.37;100.00
21357;BME280;10836;53.068;18.234;2022-11-15T04:59:06;101102.47;;;4.41;100.00
21357;BME280;10836;53.068;18.234;2022-11-15T05:01:53;101091.47;;;4.36;100.00
21357;BME280;10836;53.068;18.234;2022-11-15T05:04:39;101089.69;;;4.48;100.00
21357;BME280;10836;53.068;18.234;2022-11-15T05:07:25;101092.84;;;4.45;100.00
21357;BME280;10836;53.068;18.234;2022-11-15T05:10:11;101090.03;;;4.58;100.00
21357;BME280;10836;53.068;18.234;2022-11-15T05:12:57;101086.41;;;4.46;100.00
21357;BME280;10836;53.068;18.234;2022-11-15T05:15:44;101086.25;;;4.41;100.00
21357;BME280;10836;53.068;18.234;2022-11-15T05:18:29;101080.53;;;4.49;100.00
21357;BME280;10836;53.068;18.234;2022-11-15T05:21:15;101082.00;;;4.70;100.00
21357;BME280;10836;53.068;18.234;2022-11-15T05:24:01;101078.59;;;4.56;100.00
21357;BME280;10836;53.068;18.234;2022-11-15T05:26:47;101077.25;;;4.65;100.00
21357;BME280;10836;53.068;18.234;2022-11-15T05:29:33;101085.97;;;4.67;100.00
21357;BME280;10836;53.068;18.234;2022-11-15T05:32:18;101080.63;;;4.61;100.00
21357;BME280;10836;53.068;18.234;2022-11-15T05:35:06;101076.78;;;4.50;100.00
21357;BME280;10836;53.068;18.234;2022-11-15T05:37:54;101074.25;;;4.55;100.00
21357;BME280;10836;53.068;18.234;2022-11-15T05:40:40;101068.69;;;4.50;100.00
21357;BME280;10836;53.068;18.234;2022-11-15T05:43:26;101063.72;;;4.47;100.00
21357;BME280;10836;53.068;18.234;2022-11-15T05:46:13;101075.28;;;4.54;100.00
21357;BME280;10836;53.068;18.234;2022-11-15T05:48:59;101084.22;;;4.55;100.00
21357;BME280;10836;53.068;18.234;2022-11-15T05:51:47;101083.03;;;4.69;100.00
21357;BME280;10836;53.068;18.234;2022-11-15T05:54:35;101080.13;;;4.71;100.00
21357;BME280;10836;53.068;18.234;2022-11-15T05:57:22;101085.16;;;4.67;100.00
21357;BME280;10836;53.068;18.234;2022-11-15T06:00:08;101091.22;;;4.81;100.00
21357;BME280;10836;53.068;18.234;2022-11-15T06:02:54;101091.66;;;4.78;100.00
21357;BME280;10836;53.068;18.234;2022-11-15T06:05:40;101085.56;;;4.82;100.00
21357;BME280;10836;53.068;18.234;2022-11-15T06:08:27;101080.25;;;4.76;100.00
21357;BME280;10836;53.068;18.234;2022-11-15T06:11:13;101081.88;;;4.77;100.00
21357;BME280;10836;53.068;18.234;2022-11-15T06:13:59;101083.78;;;4.76;100.00
21357;BME280;10836;53.068;18.234;2022-11-15T06:16:44;101095.50;;;4.70;100.00
21357;BME280;10836;53.068;18.234;2022-11-15T06:19:30;101091.38;;;4.67;100.00
21357;BME280;10836;53.068;18.234;2022-11-15T06:22:17;101091.81;;;4.64;100.00
21357;BME280;10836;53.068;18.234;2022-11-15T06:25:03;101095.28;;;4.53;100.00
21357;BME280;10836;53.068;18.234;2022-11-15T06:27:54;101092.06;;;4.63;100.00
21357;BME280;10836;53.068;18.234;2022-11-15T06:30:40;101096.63;;;4.62;100.00
21357;BME280;10836;53.068;18.234;2022-11-15T06:33:26;101100.75;;;4.83;100.00
21357;BME280;10836;53.068;18.234;2022-11-15T06:36:13;101092.84;;;4.82;100.00
21357;BME280;10836;53.068;18.234;2022-11-15T06:39:05;101092.03;;;4.81;100.00
21357;BME280;10836;53.068;18.234;2022-11-15T06:41:51;101093.53;;;4.77;100.00
21357;BME280;10836;53.068;18.234;2022-11-15T06:44:36;101096.16;;;4.84;100.00
21357;BME280;10836;53.068;18.234;2022-11-15T06:47:22;101094.25;;;4.73;100.00
21357;BME280;10836;53.068;18.234;2022-11-15T06:50:07;101098.56;;;4.92;100.00
21357;BME280;10836;53.068;18.234;2022-11-15T06:52:53;101096.91;;;4.91;100.00
21357;BME280;10836;53.068;18.234;2022-11-15T06:55:39;101095.25;;;4.90;100.00
21357;BME280;10836;53.068;18.234;2022-11-15T06:58:25;101099.66;;;4.73;100.00
21357;BME280;10836;53.068;18.234;2022-11-15T07:01:11;101100.53;;;4.66;100.00
21357;BME280;10836;53.068;18.234;2022-11-15T07:03:57;101104.63;;;4.76;100.00
21357;BME280;10836;53.068;18.234;2022-11-15T07:06:46;101109.41;;;4.92;100.00
21357;BME280;10836;53.068;18.234;2022-11-15T07:09:33;101111.06;;;4.93;100.00
21357;BME280;10836;53.068;18.234;2022-11-15T07:12:19;101108.03;;;5.01;100.00
21357;BME280;10836;53.068;18.234;2022-11-15T07:15:05;101108.03;;;5.01;100.00
21357;BME280;10836;53.068;18.234;2022-11-15T07:17:51;101113.09;;;4.97;100.00
21357;BME280;10836;53.068;18.234;2022-11-15T07:20:37;101114.50;;;5.00;100.00
21357;BME280;10836;53.068;18.234;2022-11-15T07:23:23;101114.44;;;4.88;100.00
21357;BME280;10836;53.068;18.234;2022-11-15T07:26:09;101109.84;;;4.89;100.00
21357;BME280;10836;53.068;18.234;2022-11-15T07:28:55;101113.91;;;4.98;100.00
21357;BME280;10836;53.068;18.234;2022-11-15T07:31:41;101112.03;;;4.98;100.00
21357;BME280;10836;53.068;18.234;2022-11-15T07:34:27;101115.72;;;4.86;100.00
21357;BME280;10836;53.068;18.234;2022-11-15T07:37:13;101114.75;;;4.98;100.00
21357;BME280;10836;53.068;18.234;2022-11-15T07:39:58;101097.00;;;5.03;100.00
21357;BME280;10836;53.068;18.234;2022-11-15T07:42:45;101100.38;;;4.98;100.00
21357;BME280;10836;53.068;18.234;2022-11-15T07:45:44;101109.69;;;5.02;100.00
21357;BME280;10836;53.068;18.234;2022-11-15T07:48:31;101088.88;;;5.03;100.00
21357;BME280;10836;53.068;18.234;2022-11-15T07:51:28;101094.81;;;4.93;100.00
21357;BME280;10836;53.068;18.234;2022-11-15T07:54:15;101086.63;;;4.81;100.00
21357;BME280;10836;53.068;18.234;2022-11-15T07:57:01;101089.63;;;4.91;100.00
21357;BME280;10836;53.068;18.234;2022-11-15T07:59:52;101087.00;;;4.85;100.00
21357;BME280;10836;53.068;18.234;2022-11-15T08:02:37;101081.44;;;4.98;100.00
21357;BME280;10836;53.068;18.234;2022-11-15T08:05:24;101081.53;;;4.73;100.00
21357;BME280;10836;53.068;18.234;2022-11-15T08:08:10;101083.19;;;4.74;100.00
21357;BME280;10836;53.068;18.234;2022-11-15T08:10:58;101086.09;;;4.91;100.00
21357;BME280;10836;53.068;18.234;2022-11-15T08:13:43;101089.72;;;4.85;100.00
21357;BME280;10836;53.068;18.234;2022-11-15T08:16:29;101082.34;;;4.92;100.00
21357;BME280;10836;53.068;18.234;2022-11-15T08:19:15;101079.47;;;5.05;100.00
21357;BME280;10836;53.068;18.234;2022-11-15T08:22:01;101077.50;;;5.12;100.00
21357;BME280;10836;53.068;18.234;2022-11-15T08:24:46;101081.31;;;5.23;100.00
21357;BME280;10836;53.068;18.234;2022-11-15T08:27:32;101075.41;;;5.14;100.00
21357;BME280;10836;53.068;18.234;2022-11-15T08:30:18;101073.91;;;5.18;100.00
21357;BME280;10836;53.068;18.234;2022-11-15T08:33:04;101080.38;;;5.17;100.00
21357;BME280;10836;53.068;18.234;2022-11-15T08:35:50;101081.06;;;5.24;100.00
21357;BME280;10836;53.068;18.234;2022-11-15T08:38:35;101077.13;;;5.39;100.00
21357;BME280;10836;53.068;18.234;2022-11-15T08:41:33;101089.16;;;5.43;100.00
21357;BME280;10836;53.068;18.234;2022-11-15T08:44:21;101068.47;;;5.18;100.00
21357;BME280;10836;53.068;18.234;2022-11-15T08:47:06;101070.25;;;5.24;100.00
21357;BME280;10836;53.068;18.234;2022-11-15T08:49:52;101067.31;;;5.56;100.00
21357;BME280;10836;53.068;18.234;2022-11-15T08:52:38;101070.94;;;5.50;100.00
21357;BME280;10836;53.068;18.234;2022-11-15T08:55:23;101061.03;;;5.44;100.00
21357;BME280;10836;53.068;18.234;2022-11-15T08:58:09;101061.81;;;5.32;100.00
21357;BME280;10836;53.068;18.234;2022-11-15T09:00:55;101064.47;;;5.51;100.00
21357;BME280;10836;53.068;18.234;2022-11-15T09:03:41;101068.31;;;5.43;100.00
21357;BME280;10836;53.068;18.234;2022-11-15T09:06:26;101072.72;;;5.56;100.00
21357;BME280;10836;53.068;18.234;2022-11-15T09:09:12;101060.97;;;5.32;100.00
21357;BME280;10836;53.068;18.234;2022-11-15T09:11:58;101062.72;;;5.26;100.00
21357;BME280;10836;53.068;18.234;2022-11-15T09:14:47;101059.31;;;5.31;100.00
21357;BME280;10836;53.068;18.234;2022-11-15T09:17:33;101054.13;;;5.18;100.00
21357;BME280;10836;53.068;18.234;2022-11-15T09:20:18;101050.00;;;5.15;100.00
21357;BME280;10836;53.068;18.234;2022-11-15T09:23:05;101053.09;;;5.30;100.00
21357;BME280;10836;53.068;18.234;2022-11-15T09:25:51;101050.84;;;5.27;100.00
21357;BME280;10836;53.068;18.234;2022-11-15T09:28:38;101044.44;;;5.52;100.00
21357;BME280;10836;53.068;18.234;2022-11-15T09:31:27;101047.38;;;5.50;100.00
21357;BME280;10836;53.068;18.234;2022-11-15T09:34:15;101035.59;;;5.45;100.00
21357;BME280;10836;53.068;18.234;2022-11-15T09:37:00;101044.34;;;5.58;100.00
21357;BME280;10836;53.068;18.234;2022-11-15T09:39:46;101043.63;;;5.51;100.00
21357;BME280;10836;53.068;18.234;2022-11-15T09:42:59;101042.91;;;5.14;100.00
21357;BME280;10836;53.068;18.234;2022-11-15T09:46:17;101033.63;;;5.22;100.00
21357;BME280;10836;53.068;18.234;2022-11-15T09:49:14;101035.03;;;5.24;100.00
21357;BME280;10836;53.068;18.234;2022-11-15T09:52:07;101035.19;;;5.29;100.00
21357;BME280;10836;53.068;18.234;2022-11-15T09:54:43;101031.41;;;5.19;100.00
21357;BME280;10836;53.068;18.234;2022-11-15T09:57:39;101025.00;;;5.43;100.00
21357;BME280;10836;53.068;18.234;2022-11-15T10:00:19;101030.78;;;5.47;100.00
21357;BME280;10836;53.068;18.234;2022-11-15T10:03:20;101022.69;;;5.58;100.00
21357;BME280;10836;53.068;18.234;2022-11-15T10:05:52;101012.66;;;5.59;100.00
21357;BME280;10836;53.068;18.234;2022-11-15T10:11:28;101007.00;;;5.49;100.00
21357;BME280;10836;53.068;18.234;2022-11-15T10:14:25;101006.28;;;5.65;100.00
21357;BME280;10836;53.068;18.234;2022-11-15T10:17:06;101005.59;;;5.58;100.00
21357;BME280;10836;53.068;18.234;2022-11-15T10:20:20;101014.53;;;5.70;100.00
21357;BME280;10836;53.068;18.234;2022-11-15T10:22:51;100997.81;;;5.50;100.00
21357;BME280;10836;53.068;18.234;2022-11-15T10:25:25;100999.81;;;5.66;100.00
21357;BME280;10836;53.068;18.234;2022-11-15T10:30:22;100997.81;;;5.50;100.00
21357;BME280;10836;53.068;18.234;2022-11-15T10:32:49;101000.78;;;5.60;100.00
21357;BME280;10836;53.068;18.234;2022-11-15T10:35:29;101005.50;;;5.88;100.00
21357;BME280;10836;53.068;18.234;2022-11-15T10:38:05;100998.69;;;5.97;100.00
21357;BME280;10836;53.068;18.234;2022-11-15T10:40:34;100996.13;;;6.02;100.00
21357;BME280;10836;53.068;18.234;2022-11-15T10:45:37;100994.81;;;6.05;100.00
21357;BME280;10836;53.068;18.234;2022-11-15T10:50:43;100996.75;;;5.74;100.00
21357;BME280;10836;53.068;18.234;2022-11-15T10:53:23;100996.63;;;5.69;100.00
21357;BME280;10836;53.068;18.234;2022-11-15T10:55:56;100986.88;;;5.56;100.00
21357;BME280;10836;53.068;18.234;2022-11-15T10:58:37;100985.94;;;5.74;100.00
21357;BME280;10836;53.068;18.234;2022-11-15T11:03:44;100992.47;;;5.96;100.00
21357;BME280;10836;53.068;18.234;2022-11-15T11:06:16;100987.25;;;6.18;100.00
21357;BME280;10836;53.068;18.234;2022-11-15T11:08:54;100986.78;;;6.10;100.00
21357;BME280;10836;53.068;18.234;2022-11-15T11:11:22;100981.56;;;5.73;100.00
21357;BME280;10836;53.068;18.234;2022-11-15T11:13:50;100986.50;;;5.76;100.00
21357;BME280;10836;53.068;18.234;2022-11-15T11:16:23;100977.44;;;5.82;100.00
21357;BME280;10836;53.068;18.234;2022-11-15T11:19:04;100979.56;;;5.80;100.00
21357;BME280;10836;53.068;18.234;2022-11-15T11:21:59;100978.38;;;5.76;100.00
21357;BME280;10836;53.068;18.234;2022-11-15T11:24:56;100974.28;;;5.85;100.00
21357;BME280;10836;53.068;18.234;2022-11-15T11:30:25;100970.72;;;5.73;100.00
21357;BME280;10836;53.068;18.234;2022-11-15T11:38:45;100961.09;;;6.00;100.00
21357;BME280;10836;53.068;18.234;2022-11-15T11:41:41;100957.81;;;5.98;100.00
21357;BME280;10836;53.068;18.234;2022-11-15T11:49:41;100952.88;;;5.95;100.00
21357;BME280;10836;53.068;18.234;2022-11-15T11:52:30;100952.34;;;6.10;100.00
21357;BME280;10836;53.068;18.234;2022-11-15T11:55:26;100954.81;;;6.12;100.00
21357;BME280;10836;53.068;18.234;2022-11-15T11:58:16;100942.81;;;6.08;100.00
21357;BME280;10836;53.068;18.234;2022-11-15T12:00:49;100947.19;;;5.62;100.00
21357;BME280;10836;53.068;18.234;2022-11-15T12:13:49;100935.19;;;5.93;100.00
21357;BME280;10836;53.068;18.234;2022-11-15T12:16:23;100929.84;;;5.86;100.00
21357;BME280;10836;53.068;18.234;2022-11-15T12:18:54;100925.03;;;5.77;100.00
21357;BME280;10836;53.068;18.234;2022-11-15T12:21:43;100931.72;;;5.74;100.00
21357;BME280;10836;53.068;18.234;2022-11-15T12:24:37;100932.81;;;5.50;100.00
21357;BME280;10836;53.068;18.234;2022-11-15T12:27:20;100930.22;;;5.55;100.00
21357;BME280;10836;53.068;18.234;2022-11-15T12:30:03;100928.09;;;5.80;100.00
21357;BME280;10836;53.068;18.234;2022-11-15T12:32:37;100922.53;;;5.87;100.00
21357;BME280;10836;53.068;18.234;2022-11-15T12:35:34;100926.66;;;5.66;100.00
21357;BME280;10836;53.068;18.234;2022-11-15T12:38:02;100935.28;;;5.86;100.00
21357;BME280;10836;53.068;18.234;2022-11-15T12:40:35;100930.00;;;5.91;100.00
21357;BME280;10836;53.068;18.234;2022-11-15T12:45:40;100920.06;;;5.85;100.00
21357;BME280;10836;53.068;18.234;2022-11-15T12:56:18;100916.91;;;5.53;100.00
21357;BME280;10836;53.068;18.234;2022-11-15T12:58:47;100910.53;;;5.71;100.00
21357;BME280;10836;53.068;18.234;2022-11-15T13:04:28;100908.66;;;5.95;100.00
21357;BME280;10836;53.068;18.234;2022-11-15T13:06:57;100903.34;;;5.88;100.00
21357;BME280;10836;53.068;18.234;2022-11-15T13:11:56;100911.91;;;6.09;100.00
21357;BME280;10836;53.068;18.234;2022-11-15T13:20:01;100918.69;;;5.94;100.00
21357;BME280;10836;53.068;18.234;2022-11-15T13:22:59;100914.19;;;5.88;100.00
21357;BME280;10836;53.068;18.234;2022-11-15T13:28:21;100894.88;;;5.96;100.00
21357;BME280;10836;53.068;18.234;2022-11-15T13:30:52;100909.63;;;5.89;100.00
21357;BME280;10836;53.068;18.234;2022-11-15T13:33:35;100896.38;;;5.81;100.00
21357;BME280;10836;53.068;18.234;2022-11-15T13:36:07;100887.44;;;5.68;100.00
21357;BME280;10836;53.068;18.234;2022-11-15T13:38:38;100889.47;;;5.50;100.00
21357;BME280;10836;53.068;18.234;2022-11-15T13:41:22;100896.06;;;5.54;100.00
21357;BME280;10836;53.068;18.234;2022-11-15T13:43:51;100899.81;;;5.76;100.00
21357;BME280;10836;53.068;18.234;2022-11-15T13:46:24;100895.22;;;5.88;100.00
21357;BME280;10836;53.068;18.234;2022-11-15T13:48:55;100893.94;;;5.91;100.00
21357;BME280;10836;53.068;18.234;2022-11-15T13:54:07;100895.34;;;5.93;100.00
21357;BME280;10836;53.068;18.234;2022-11-15T13:56:37;100890.03;;;5.63;100.00
21357;BME280;10836;53.068;18.234;2022-11-15T14:01:50;100900.31;;;5.50;100.00
21357;BME280;10836;53.068;18.234;2022-11-15T14:04:20;100888.06;;;5.59;100.00
21357;BME280;10836;53.068;18.234;2022-11-15T14:06:51;100876.97;;;5.49;100.00
21357;BME280;10836;53.068;18.234;2022-11-15T14:09:38;100882.16;;;5.62;100.00
21357;BME280;10836;53.068;18.234;2022-11-15T14:12:27;100874.88;;;5.51;100.00
21357;BME280;10836;53.068;18.234;2022-11-15T14:14:56;100880.03;;;5.41;100.00
21357;BME280;10836;53.068;18.234;2022-11-15T14:19:57;100870.84;;;5.65;100.00
21357;BME280;10836;53.068;18.234;2022-11-15T14:22:29;100871.31;;;5.74;100.00
21357;BME280;10836;53.068;18.234;2022-11-15T14:25:18;100866.38;;;5.59;100.00
21357;BME280;10836;53.068;18.234;2022-11-15T14:30:36;100857.09;;;5.55;100.00
21357;BME280;10836;53.068;18.234;2022-11-15T14:35:44;100850.59;;;5.32;100.00
21357;BME280;10836;53.068;18.234;2022-11-15T14:38:11;100854.63;;;5.18;100.00
21357;BME280;10836;53.068;18.234;2022-11-15T14:40:38;100852.97;;;5.17;100.00
21357;BME280;10836;53.068;18.234;2022-11-15T14:43:09;100852.97;;;5.17;100.00
21357;BME280;10836;53.068;18.234;2022-11-15T14:45:37;100850.97;;;5.13;100.00
21357;BME280;10836;53.068;18.234;2022-11-15T14:48:05;100853.66;;;5.01;100.00
21357;BME280;10836;53.068;18.234;2022-11-15T14:50:33;100855.28;;;5.02;100.00
21357;BME280;10836;53.068;18.234;2022-11-15T14:53:01;100857.88;;;4.97;100.00
21357;BME280;10836;53.068;18.234;2022-11-15T14:55:33;100858.34;;;4.94;100.00
21357;BME280;10836;53.068;18.234;2022-11-15T14:58:03;100847.59;;;4.87;100.00
21357;BME280;10836;53.068;18.234;2022-11-15T15:00:31;100852.91;;;4.94;100.00
21357;BME280;10836;53.068;18.234;2022-11-15T15:03:02;100846.78;;;4.87;100.00
21357;BME280;10836;53.068;18.234;2022-11-15T15:05:41;100851.06;;;5.06;100.00
21357;BME280;10836;53.068;18.234;2022-11-15T15:08:09;100851.38;;;4.86;100.00
21357;BME280;10836;53.068;18.234;2022-11-15T15:10:42;100859.53;;;4.98;100.00
21357;BME280;10836;53.068;18.234;2022-11-15T15:15:43;100854.78;;;4.82;100.00
21357;BME280;10836;53.068;18.234;2022-11-15T15:18:10;100853.25;;;4.86;100.00
21357;BME280;10836;53.068;18.234;2022-11-15T15:20:39;100854.38;;;5.08;100.00
21357;BME280;10836;53.068;18.234;2022-11-15T15:23:16;100859.53;;;4.98;100.00
21357;BME280;10836;53.068;18.234;2022-11-15T15:25:44;100856.69;;;4.93;100.00
21357;BME280;10836;53.068;18.234;2022-11-15T15:28:13;100858.44;;;4.87;100.00
21357;BME280;10836;53.068;18.234;2022-11-15T15:30:40;100849.72;;;4.85;100.00
21357;BME280;10836;53.068;18.234;2022-11-15T15:33:08;100861.38;;;4.86;100.00
21357;BME280;10836;53.068;18.234;2022-11-15T15:35:35;100859.25;;;4.88;100.00
21357;BME280;10836;53.068;18.234;2022-11-15T15:38:03;100856.41;;;4.83;100.00
21357;BME280;10836;53.068;18.234;2022-11-15T15:40:31;100858.53;;;4.81;100.00
21357;BME280;10836;53.068;18.234;2022-11-15T15:42:59;100855.13;;;4.85;100.00
21357;BME280;10836;53.068;18.234;2022-11-15T15:45:27;100846.41;;;4.72;100.00
21357;BME280;10836;53.068;18.234;2022-11-15T15:47:55;100850.31;;;4.76;100.00
21357;BME280;10836;53.068;18.234;2022-11-15T15:52:52;100848.31;;;4.83;100.00
21357;BME280;10836;53.068;18.234;2022-11-15T15:55:20;100847.25;;;4.84;100.00
21357;BME280;10836;53.068;18.234;2022-11-15T15:57:48;100844.94;;;4.99;100.00
21357;BME280;10836;53.068;18.234;2022-11-15T16:00:16;100838.81;;;5.04;100.00
21357;BME280;10836;53.068;18.234;2022-11-15T16:02:44;100832.09;;;4.94;100.00